sensor_id;sensor_type;location;lat;lon;timestamp;temperature;humidity
7684;DHT22;3884;48.616;12.872;2023-04-08T00:00:29;4.90;1.00
7684;DHT22;3884;48.616;12.872;2023-04-08T00:02:56;5.10;1.00
7684;DHT22;3884;48.616;12.872;2023-04-08T00:05:23;5.10;1.00
7684;DHT22;3884;48.616;12.872;2023-04-08T00:07:50;5.00;1.00
7684;DHT22;3884;48.616;12.872;2023-04-08T00:10:17;4.80;1.00
7684;DHT22;3884;48.616;12.872;2023-04-08T00:12:44;4.80;99.90
7684;DHT22;3884;48.616;12.872;2023-04-08T00:15:11;4.90;99.90
7684;DHT22;3884;48.616;12.872;2023-04-08T00:17:39;4.90;99.90
7684;DHT22;3884;48.616;12.872;2023-04-08T00:20:07;5.10;1.00
7684;DHT22;3884;48.616;12.872;2023-04-08T00:22:34;5.20;99.90
7684;DHT22;3884;48.616;12.872;2023-04-08T00:25:03;5.20;99.90
7684;DHT22;3884;48.616;12.872;2023-04-08T00:27:31;5.20;99.90
7684;DHT22;3884;48.616;12.872;2023-04-08T00:29:58;5.20;99.90
7684;DHT22;3884;48.616;12.872;2023-04-08T00:32:26;5.30;8.50
7684;DHT22;3884;48.616;12.872;2023-04-08T00:34:55;5.30;1.00
7684;DHT22;3884;48.616;12.872;2023-04-08T00:37:21;5.40;1.00
7684;DHT22;3884;48.616;12.872;2023-04-08T00:39:49;5.40;1.00
7684;DHT22;3884;48.616;12.872;2023-04-08T00:42:18;5.30;1.00
7684;DHT22;3884;48.616;12.872;2023-04-08T00:44:45;5.30;1.00
7684;DHT22;3884;48.616;12.872;2023-04-08T00:47:12;5.20;1.00
7684;DHT22;3884;48.616;12.872;2023-04-08T00:49:40;5.20;1.00
7684;DHT22;3884;48.616;12.872;2023-04-08T00:52:08;5.30;1.00
7684;DHT22;3884;48.616;12.872;2023-04-08T00:54:36;5.40;99.90
7684;DHT22;3884;48.616;12.872;2023-04-08T00:57:03;5.40;99.90
7684;DHT22;3884;48.616;12.872;2023-04-08T00:59:31;5.50;99.90
7684;DHT22;3884;48.616;12.872;2023-04-08T01:02:06;5.50;99.90
7684;DHT22;3884;48.616;12.872;2023-04-08T01:04:45;5.50;99.90
7684;DHT22;3884;48.616;12.872;2023-04-08T01:07:21;5.50;99.90
7684;DHT22;3884;48.616;12.872;2023-04-08T01:09:52;5.50;99.90
7684;DHT22;3884;48.616;12.872;2023-04-08T01:12:24;5.50;99.90
7684;DHT22;3884;48.616;12.872;2023-04-08T01:14:58;5.40;99.90
7684;DHT22;3884;48.616;12.872;2023-04-08T01:17:26;5.40;99.90
7684;DHT22;3884;48.616;12.872;2023-04-08T01:19:54;5.30;99.90
7684;DHT22;3884;48.616;12.872;2023-04-08T01:22:28;5.30;99.90
7684;DHT22;3884;48.616;12.872;2023-04-08T01:25:04;5.40;99.90
7684;DHT22;3884;48.616;12.872;2023-04-08T01:27:34;5.40;99.90
7684;DHT22;3884;48.616;12.872;2023-04-08T01:30:03;5.40;99.90
7684;DHT22;3884;48.616;12.872;2023-04-08T01:32:33;5.50;99.90
7684;DHT22;3884;48.616;12.872;2023-04-08T01:35:01;5.40;99.90
7684;DHT22;3884;48.616;12.872;2023-04-08T01:37:29;5.50;1.00
7684;DHT22;3884;48.616;12.872;2023-04-08T01:39:58;5.50;1.00
7684;DHT22;3884;48.616;12.872;2023-04-08T01:42:27;5.60;1.00
7684;DHT22;3884;48.616;12.872;2023-04-08T01:44:57;5.70;1.00
7684;DHT22;3884;48.616;12.872;2023-04-08T01:47:25;5.70;1.00
7684;DHT22;3884;48.616;12.872;2023-04-08T01:49:52;5.80;99.90
7684;DHT22;3884;48.616;12.872;2023-04-08T01:52:21;5.80;99.90
7684;DHT22;3884;48.616;12.872;2023-04-08T01:54:49;5.80;99.90
7684;DHT22;3884;48.616;12.872;2023-04-08T01:57:20;5.80;99.90
7684;DHT22;3884;48.616;12.872;2023-04-08T01:59:51;5.80;99.90
7684;DHT22;3884;48.616;12.872;2023-04-08T02:02:20;5.80;99.90
7684;DHT22;3884;48.616;12.872;2023-04-08T02:04:48;5.80;99.90
7684;DHT22;3884;48.616;12.872;2023-04-08T02:07:15;5.80;99.90
7684;DHT22;3884;48.616;12.872;2023-04-08T02:09:42;5.80;99.90
7684;DHT22;3884;48.616;12.872;2023-04-08T02:12:10;5.80;99.90
7684;DHT22;3884;48.616;12.872;2023-04-08T02:14:37;5.80;99.90
7684;DHT22;3884;48.616;12.872;2023-04-08T02:17:08;5.80;99.90
7684;DHT22;3884;48.616;12.872;2023-04-08T02:19:43;5.80;99.90
7684;DHT22;3884;48.616;12.872;2023-04-08T02:22:15;5.70;99.90
7684;DHT22;3884;48.616;12.872;2023-04-08T02:24:42;5.70;99.90
7684;DHT22;3884;48.616;12.872;2023-04-08T02:27:10;5.70;99.90
7684;DHT22;3884;48.616;12.872;2023-04-08T02:29:39;5.70;99.90
7684;DHT22;3884;48.616;12.872;2023-04-08T02:32:07;5.70;99.90
7684;DHT22;3884;48.616;12.872;2023-04-08T02:34:39;5.70;99.90
7684;DHT22;3884;48.616;12.872;2023-04-08T02:37:07;5.70;99.90
7684;DHT22;3884;48.616;12.872;2023-04-08T02:39:34;5.70;99.90
7684;DHT22;3884;48.616;12.872;2023-04-08T02:42:03;5.70;99.90
7684;DHT22;3884;48.616;12.872;2023-04-08T02:44:30;5.70;83.10
7684;DHT22;3884;48.616;12.872;2023-04-08T02:47:00;5.70;37.10
7684;DHT22;3884;48.616;12.872;2023-04-08T02:49:27;5.80;24.20
7684;DHT22;3884;48.616;12.872;2023-04-08T02:51:55;5.80;7.80
7684;DHT22;3884;48.616;12.872;2023-04-08T02:54:22;5.80;1.00
7684;DHT22;3884;48.616;12.872;2023-04-08T02:56:49;5.80;1.00
7684;DHT22;3884;48.616;12.872;2023-04-08T02:59:16;5.80;1.00
7684;DHT22;3884;48.616;12.872;2023-04-08T03:01:43;5.80;1.00
7684;DHT22;3884;48.616;12.872;2023-04-08T03:04:10;5.80;1.00
7684;DHT22;3884;48.616;12.872;2023-04-08T03:06:37;5.80;1.00
7684;DHT22;3884;48.616;12.872;2023-04-08T03:09:05;5.80;1.00
7684;DHT22;3884;48.616;12.872;2023-04-08T03:11:32;5.80;1.00
7684;DHT22;3884;48.616;12.872;2023-04-08T03:13:59;5.80;1.00
7684;DHT22;3884;48.616;12.872;2023-04-08T03:16:26;5.80;1.00
7684;DHT22;3884;48.616;12.872;2023-04-08T03:18:53;5.80;1.00
7684;DHT22;3884;48.616;12.872;2023-04-08T03:21:20;5.70;1.00
7684;DHT22;3884;48.616;12.872;2023-04-08T03:23:46;5.80;1.00
7684;DHT22;3884;48.616;12.872;2023-04-08T03:26:15;5.70;1.00
7684;DHT22;3884;48.616;12.872;2023-04-08T03:28:41;5.80;1.00
7684;DHT22;3884;48.616;12.872;2023-04-08T03:31:09;5.80;1.00
7684;DHT22;3884;48.616;12.872;2023-04-08T03:33:36;5.80;1.00
7684;DHT22;3884;48.616;12.872;2023-04-08T03:36:03;5.70;1.00
7684;DHT22;3884;48.616;12.872;2023-04-08T03:38:30;5.70;1.00
7684;DHT22;3884;48.616;12.872;2023-04-08T03:40:57;5.70;1.00
7684;DHT22;3884;48.616;12.872;2023-04-08T03:43:25;5.70;1.00
7684;DHT22;3884;48.616;12.872;2023-04-08T03:45:52;5.60;1.00
7684;DHT22;3884;48.616;12.872;2023-04-08T03:48:19;5.50;1.00
7684;DHT22;3884;48.616;12.872;2023-04-08T03:50:46;5.60;1.00
7684;DHT22;3884;48.616;12.872;2023-04-08T03:53:13;5.60;1.00
7684;DHT22;3884;48.616;12.872;2023-04-08T03:55:40;5.50;1.00
7684;DHT22;3884;48.616;12.872;2023-04-08T03:58:06;5.50;1.00
7684;DHT22;3884;48.616;12.872;2023-04-08T04:00:35;5.40;1.00
7684;DHT22;3884;48.616;12.872;2023-04-08T04:03:02;5.30;27.50
7684;DHT22;3884;48.616;12.872;2023-04-08T04:05:29;5.30;48.50
7684;DHT22;3884;48.616;12.872;2023-04-08T04:07:56;5.30;62.60
7684;DHT22;3884;48.616;12.872;2023-04-08T04:10:23;5.40;64.50
7684;DHT22;3884;48.616;12.872;2023-04-08T04:12:50;5.40;69.20
7684;DHT22;3884;48.616;12.872;2023-04-08T04:15:17;5.30;60.20
7684;DHT22;3884;48.616;12.872;2023-04-08T04:17:48;5.30;59.50
7684;DHT22;3884;48.616;12.872;2023-04-08T04:20:15;5.30;34.50
7684;DHT22;3884;48.616;12.872;2023-04-08T04:22:42;5.30;42.10
7684;DHT22;3884;48.616;12.872;2023-04-08T04:25:09;5.30;67.00
7684;DHT22;3884;48.616;12.872;2023-04-08T04:27:36;5.20;85.20
7684;DHT22;3884;48.616;12.872;2023-04-08T04:30:04;5.20;46.90
7684;DHT22;3884;48.616;12.872;2023-04-08T04:32:31;5.20;88.90
7684;DHT22;3884;48.616;12.872;2023-04-08T04:35:00;5.20;71.20
7684;DHT22;3884;48.616;12.872;2023-04-08T04:37:27;5.20;53.30
7684;DHT22;3884;48.616;12.872;2023-04-08T04:39:53;5.10;98.50
7684;DHT22;3884;48.616;12.872;2023-04-08T04:42:20;5.10;97.60
7684;DHT22;3884;48.616;12.872;2023-04-08T04:44:47;5.20;72.80
7684;DHT22;3884;48.616;12.872;2023-04-08T04:47:14;5.20;44.00
7684;DHT22;3884;48.616;12.872;2023-04-08T04:49:41;5.30;48.90
7684;DHT22;3884;48.616;12.872;2023-04-08T04:52:09;5.30;1.00
7684;DHT22;3884;48.616;12.872;2023-04-08T04:54:36;5.20;29.50
7684;DHT22;3884;48.616;12.872;2023-04-08T04:57:03;5.20;41.30
7684;DHT22;3884;48.616;12.872;2023-04-08T04:59:30;5.20;19.20
7684;DHT22;3884;48.616;12.872;2023-04-08T05:01:57;5.20;14.80
7684;DHT22;3884;48.616;12.872;2023-04-08T05:04:24;5.30;6.10
7684;DHT22;3884;48.616;12.872;2023-04-08T05:06:51;5.30;15.60
7684;DHT22;3884;48.616;12.872;2023-04-08T05:09:19;5.30;21.60
7684;DHT22;3884;48.616;12.872;2023-04-08T05:11:46;5.30;25.00
7684;DHT22;3884;48.616;12.872;2023-04-08T05:14:12;5.30;20.20
7684;DHT22;3884;48.616;12.872;2023-04-08T05:16:39;5.30;15.80
7684;DHT22;3884;48.616;12.872;2023-04-08T05:19:06;5.30;30.80
7684;DHT22;3884;48.616;12.872;2023-04-08T05:21:33;5.40;8.70
7684;DHT22;3884;48.616;12.872;2023-04-08T05:24:00;5.40;1.00
7684;DHT22;3884;48.616;12.872;2023-04-08T05:26:28;5.40;13.70
7684;DHT22;3884;48.616;12.872;2023-04-08T05:28:55;5.40;1.00
7684;DHT22;3884;48.616;12.872;2023-04-08T05:31:22;5.30;1.00
7684;DHT22;3884;48.616;12.872;2023-04-08T05:33:49;5.40;1.00
7684;DHT22;3884;48.616;12.872;2023-04-08T05:36:15;5.30;7.80
7684;DHT22;3884;48.616;12.872;2023-04-08T05:38:46;5.40;1.00
7684;DHT22;3884;48.616;12.872;2023-04-08T05:41:13;5.40;1.00
7684;DHT22;3884;48.616;12.872;2023-04-08T05:43:41;5.30;1.00
7684;DHT22;3884;48.616;12.872;2023-04-08T05:46:09;5.30;1.00
7684;DHT22;3884;48.616;12.872;2023-04-08T05:48:36;5.30;1.00
7684;DHT22;3884;48.616;12.872;2023-04-08T05:51:03;5.30;1.00
7684;DHT22;3884;48.616;12.872;2023-04-08T05:53:30;5.30;1.00
7684;DHT22;3884;48.616;12.872;2023-04-08T05:55:57;5.30;1.00
7684;DHT22;3884;48.616;12.872;2023-04-08T05:58:24;5.40;15.80
7684;DHT22;3884;48.616;12.872;2023-04-08T06:00:52;5.40;35.10
7684;DHT22;3884;48.616;12.872;2023-04-08T06:03:20;5.30;85.90
7684;DHT22;3884;48.616;12.872;2023-04-08T06:05:47;5.30;99.90
7684;DHT22;3884;48.616;12.872;2023-04-08T06:08:13;5.30;1.00
7684;DHT22;3884;48.616;12.872;2023-04-08T06:10:47;5.20;99.90
7684;DHT22;3884;48.616;12.872;2023-04-08T06:13:14;5.20;99.90
7684;DHT22;3884;48.616;12.872;2023-04-08T06:15:41;5.20;1.00
7684;DHT22;3884;48.616;12.872;2023-04-08T06:18:09;5.10;1.00
7684;DHT22;3884;48.616;12.872;2023-04-08T06:20:36;5.10;1.00
7684;DHT22;3884;48.616;12.872;2023-04-08T06:23:03;5.10;1.00
7684;DHT22;3884;48.616;12.872;2023-04-08T06:25:30;5.10;1.00
7684;DHT22;3884;48.616;12.872;2023-04-08T06:27:57;5.00;1.00
7684;DHT22;3884;48.616;12.872;2023-04-08T06:30:24;5.00;99.90
7684;DHT22;3884;48.616;12.872;2023-04-08T06:32:51;4.90;1.00
7684;DHT22;3884;48.616;12.872;2023-04-08T06:35:19;5.00;1.00
7684;DHT22;3884;48.616;12.872;2023-04-08T06:37:46;4.90;99.90
7684;DHT22;3884;48.616;12.872;2023-04-08T06:40:13;4.80;99.90
7684;DHT22;3884;48.616;12.872;2023-04-08T06:42:40;4.80;1.00
7684;DHT22;3884;48.616;12.872;2023-04-08T06:45:32;4.70;99.90
7684;DHT22;3884;48.616;12.872;2023-04-08T06:47:59;4.60;1.00
7684;DHT22;3884;48.616;12.872;2023-04-08T06:50:27;4.60;1.00
7684;DHT22;3884;48.616;12.872;2023-04-08T06:52:54;4.50;1.00
7684;DHT22;3884;48.616;12.872;2023-04-08T06:55:21;4.40;99.90
7684;DHT22;3884;48.616;12.872;2023-04-08T06:57:48;4.40;1.00
7684;DHT22;3884;48.616;12.872;2023-04-08T07:00:15;4.40;1.00
7684;DHT22;3884;48.616;12.872;2023-04-08T07:02:42;4.40;99.90
7684;DHT22;3884;48.616;12.872;2023-04-08T07:05:09;4.40;99.90
7684;DHT22;3884;48.616;12.872;2023-04-08T07:07:37;4.40;99.90
7684;DHT22;3884;48.616;12.872;2023-04-08T07:10:05;4.40;1.00
7684;DHT22;3884;48.616;12.872;2023-04-08T07:12:32;4.50;1.00
7684;DHT22;3884;48.616;12.872;2023-04-08T07:14:58;4.50;1.00
7684;DHT22;3884;48.616;12.872;2023-04-08T07:17:25;4.50;1.00
7684;DHT22;3884;48.616;12.872;2023-04-08T07:19:52;4.50;99.90
7684;DHT22;3884;48.616;12.872;2023-04-08T07:22:19;4.40;1.00
7684;DHT22;3884;48.616;12.872;2023-04-08T07:24:47;4.50;99.90
7684;DHT22;3884;48.616;12.872;2023-04-08T07:27:14;4.50;99.90
7684;DHT22;3884;48.616;12.872;2023-04-08T07:29:41;4.50;1.00
7684;DHT22;3884;48.616;12.872;2023-04-08T07:32:08;4.60;1.00
7684;DHT22;3884;48.616;12.872;2023-04-08T07:34:35;4.70;99.90
7684;DHT22;3884;48.616;12.872;2023-04-08T07:37:02;4.80;99.90
7684;DHT22;3884;48.616;12.872;2023-04-08T07:39:29;4.80;1.00
7684;DHT22;3884;48.616;12.872;2023-04-08T07:41:57;4.80;1.00
7684;DHT22;3884;48.616;12.872;2023-04-08T07:44:24;4.70;99.90
7684;DHT22;3884;48.616;12.872;2023-04-08T07:46:51;4.80;1.00
7684;DHT22;3884;48.616;12.872;2023-04-08T07:49:17;4.80;1.00
7684;DHT22;3884;48.616;12.872;2023-04-08T07:51:44;4.90;1.00
7684;DHT22;3884;48.616;12.872;2023-04-08T07:54:11;5.00;99.90
7684;DHT22;3884;48.616;12.872;2023-04-08T07:56:41;5.00;99.90
7684;DHT22;3884;48.616;12.872;2023-04-08T07:59:10;5.00;1.00
7684;DHT22;3884;48.616;12.872;2023-04-08T08:01:37;5.00;1.00
7684;DHT22;3884;48.616;12.872;2023-04-08T08:04:04;5.00;99.90
7684;DHT22;3884;48.616;12.872;2023-04-08T08:06:31;4.80;99.90
7684;DHT22;3884;48.616;12.872;2023-04-08T08:08:58;4.80;99.90
7684;DHT22;3884;48.616;12.872;2023-04-08T08:11:25;4.80;1.00
7684;DHT22;3884;48.616;12.872;2023-04-08T08:13:52;4.80;99.90
7684;DHT22;3884;48.616;12.872;2023-04-08T08:16:20;4.80;1.00
7684;DHT22;3884;48.616;12.872;2023-04-08T08:18:47;5.00;99.90
7684;DHT22;3884;48.616;12.872;2023-04-08T08:21:14;4.90;99.90
7684;DHT22;3884;48.616;12.872;2023-04-08T08:23:41;4.80;15.00
7684;DHT22;3884;48.616;12.872;2023-04-08T08:26:09;4.80;99.90
7684;DHT22;3884;48.616;12.872;2023-04-08T08:28:36;4.80;1.00
7684;DHT22;3884;48.616;12.872;2023-04-08T08:31:03;4.80;1.00
7684;DHT22;3884;48.616;12.872;2023-04-08T08:33:32;4.90;1.00
7684;DHT22;3884;48.616;12.872;2023-04-08T08:35:59;4.80;99.90
7684;DHT22;3884;48.616;12.872;2023-04-08T08:38:26;4.80;99.90
7684;DHT22;3884;48.616;12.872;2023-04-08T08:40:54;4.70;1.00
7684;DHT22;3884;48.616;12.872;2023-04-08T08:43:21;4.70;99.90
7684;DHT22;3884;48.616;12.872;2023-04-08T08:45:48;4.60;1.00
7684;DHT22;3884;48.616;12.872;2023-04-08T08:48:15;4.70;99.90
7684;DHT22;3884;48.616;12.872;2023-04-08T08:50:44;4.60;99.90
7684;DHT22;3884;48.616;12.872;2023-04-08T08:53:11;4.60;1.00
7684;DHT22;3884;48.616;12.872;2023-04-08T08:55:38;4.60;99.90
7684;DHT22;3884;48.616;12.872;2023-04-08T08:58:06;4.50;1.00
7684;DHT22;3884;48.616;12.872;2023-04-08T09:00:34;4.40;1.00
7684;DHT22;3884;48.616;12.872;2023-04-08T09:03:15;4.60;1.00
7684;DHT22;3884;48.616;12.872;2023-04-08T09:05:51;4.60;1.00
7684;DHT22;3884;48.616;12.872;2023-04-08T09:08:25;4.60;1.00
7684;DHT22;3884;48.616;12.872;2023-04-08T09:10:52;4.60;1.00
7684;DHT22;3884;48.616;12.872;2023-04-08T09:13:21;4.70;1.00
7684;DHT22;3884;48.616;12.872;2023-04-08T09:16:02;4.80;1.00
7684;DHT22;3884;48.616;12.872;2023-04-08T09:18:30;4.90;1.00
7684;DHT22;3884;48.616;12.872;2023-04-08T09:21:00;4.90;1.00
7684;DHT22;3884;48.616;12.872;2023-04-08T09:23:43;4.90;99.90
7684;DHT22;3884;48.616;12.872;2023-04-08T09:26:12;4.90;1.00
7684;DHT22;3884;48.616;12.872;2023-04-08T09:28:40;4.80;1.00
7684;DHT22;3884;48.616;12.872;2023-04-08T09:31:21;4.80;1.00
7684;DHT22;3884;48.616;12.872;2023-04-08T09:33:48;4.80;99.90
7684;DHT22;3884;48.616;12.872;2023-04-08T09:36:17;4.80;99.90
7684;DHT22;3884;48.616;12.872;2023-04-08T09:38:44;4.80;1.00
7684;DHT22;3884;48.616;12.872;2023-04-08T09:41:13;4.80;1.00
7684;DHT22;3884;48.616;12.872;2023-04-08T09:43:42;4.80;99.90
7684;DHT22;3884;48.616;12.872;2023-04-08T09:46:14;4.70;1.00
7684;DHT22;3884;48.616;12.872;2023-04-08T09:48:48;4.70;99.90
7684;DHT22;3884;48.616;12.872;2023-04-08T09:51:18;4.80;97.70
7684;DHT22;3884;48.616;12.872;2023-04-08T09:53:47;4.90;99.90
7684;DHT22;3884;48.616;12.872;2023-04-08T09:56:16;5.00;99.90
7684;DHT22;3884;48.616;12.872;2023-04-08T09:58:51;5.10;99.90
7684;DHT22;3884;48.616;12.872;2023-04-08T10:01:23;5.10;99.90
7684;DHT22;3884;48.616;12.872;2023-04-08T10:03:54;5.20;1.00
7684;DHT22;3884;48.616;12.872;2023-04-08T10:06:27;5.30;99.90
7684;DHT22;3884;48.616;12.872;2023-04-08T10:08:55;5.40;1.00
7684;DHT22;3884;48.616;12.872;2023-04-08T10:11:22;5.50;1.00
7684;DHT22;3884;48.616;12.872;2023-04-08T10:13:50;5.40;1.00
7684;DHT22;3884;48.616;12.872;2023-04-08T10:16:21;5.30;1.00
7684;DHT22;3884;48.616;12.872;2023-04-08T10:18:49;5.30;99.90
7684;DHT22;3884;48.616;12.872;2023-04-08T10:21:37;5.40;99.90
7684;DHT22;3884;48.616;12.872;2023-04-08T10:24:08;5.40;1.00
7684;DHT22;3884;48.616;12.872;2023-04-08T10:26:38;5.40;99.90
7684;DHT22;3884;48.616;12.872;2023-04-08T10:32:08;5.60;1.00
7684;DHT22;3884;48.616;12.872;2023-04-08T10:34:53;5.60;99.90
7684;DHT22;3884;48.616;12.872;2023-04-08T10:37:22;5.60;99.90
7684;DHT22;3884;48.616;12.872;2023-04-08T10:39:49;5.60;99.90
7684;DHT22;3884;48.616;12.872;2023-04-08T10:42:17;5.70;1.00
7684;DHT22;3884;48.616;12.872;2023-04-08T10:44:44;5.80;1.00
7684;DHT22;3884;48.616;12.872;2023-04-08T10:47:12;5.80;1.00
7684;DHT22;3884;48.616;12.872;2023-04-08T10:49:39;5.80;1.00
7684;DHT22;3884;48.616;12.872;2023-04-08T10:52:07;5.90;1.00
7684;DHT22;3884;48.616;12.872;2023-04-08T10:54:36;6.00;1.00
7684;DHT22;3884;48.616;12.872;2023-04-08T10:57:04;6.10;1.00
7684;DHT22;3884;48.616;12.872;2023-04-08T10:59:31;6.20;99.90
7684;DHT22;3884;48.616;12.872;2023-04-08T11:01:58;6.30;1.00
7684;DHT22;3884;48.616;12.872;2023-04-08T11:04:26;6.30;1.00
7684;DHT22;3884;48.616;12.872;2023-04-08T11:06:54;6.40;99.90
7684;DHT22;3884;48.616;12.872;2023-04-08T11:09:24;6.50;99.90
7684;DHT22;3884;48.616;12.872;2023-04-08T11:11:53;6.60;99.90
7684;DHT22;3884;48.616;12.872;2023-04-08T11:14:22;6.50;1.00
7684;DHT22;3884;48.616;12.872;2023-04-08T11:16:51;6.30;95.60
7684;DHT22;3884;48.616;12.872;2023-04-08T11:19:19;6.40;1.00
7684;DHT22;3884;48.616;12.872;2023-04-08T11:21:47;6.40;1.00
7684;DHT22;3884;48.616;12.872;2023-04-08T11:24:14;6.40;99.90
7684;DHT22;3884;48.616;12.872;2023-04-08T11:26:41;6.40;1.00
7684;DHT22;3884;48.616;12.872;2023-04-08T11:29:10;6.50;99.90
7684;DHT22;3884;48.616;12.872;2023-04-08T11:31:40;6.50;99.90
7684;DHT22;3884;48.616;12.872;2023-04-08T11:34:08;6.40;99.90
7684;DHT22;3884;48.616;12.872;2023-04-08T11:36:36;6.20;99.90
7684;DHT22;3884;48.616;12.872;2023-04-08T11:39:06;6.30;1.00
7684;DHT22;3884;48.616;12.872;2023-04-08T11:41:37;6.30;1.00
7684;DHT22;3884;48.616;12.872;2023-04-08T11:44:05;6.30;1.00
7684;DHT22;3884;48.616;12.872;2023-04-08T11:46:34;6.40;99.90
7684;DHT22;3884;48.616;12.872;2023-04-08T11:49:03;6.50;1.00
7684;DHT22;3884;48.616;12.872;2023-04-08T11:51:31;6.40;99.90
7684;DHT22;3884;48.616;12.872;2023-04-08T11:53:59;6.60;1.00
7684;DHT22;3884;48.616;12.872;2023-04-08T11:56:26;6.60;86.20
7684;DHT22;3884;48.616;12.872;2023-04-08T11:58:55;6.60;1.00
7684;DHT22;3884;48.616;12.872;2023-04-08T12:01:22;6.70;1.00
7684;DHT22;3884;48.616;12.872;2023-04-08T12:03:58;6.60;1.00
7684;DHT22;3884;48.616;12.872;2023-04-08T12:06:25;6.60;1.00
7684;DHT22;3884;48.616;12.872;2023-04-08T12:08:53;6.50;9.00
7684;DHT22;3884;48.616;12.872;2023-04-08T12:11:20;6.50;1.00
7684;DHT22;3884;48.616;12.872;2023-04-08T12:13:47;6.50;99.90
7684;DHT22;3884;48.616;12.872;2023-04-08T12:16:15;6.50;52.10
7684;DHT22;3884;48.616;12.872;2023-04-08T12:18:42;6.50;99.90
7684;DHT22;3884;48.616;12.872;2023-04-08T12:21:10;6.60;99.90
7684;DHT22;3884;48.616;12.872;2023-04-08T12:23:37;6.60;99.90
7684;DHT22;3884;48.616;12.872;2023-04-08T12:26:04;6.70;1.00
7684;DHT22;3884;48.616;12.872;2023-04-08T12:28:32;6.70;99.90
7684;DHT22;3884;48.616;12.872;2023-04-08T12:30:59;6.80;99.90
7684;DHT22;3884;48.616;12.872;2023-04-08T12:33:26;6.80;76.90
7684;DHT22;3884;48.616;12.872;2023-04-08T12:35:53;6.80;99.90
7684;DHT22;3884;48.616;12.872;2023-04-08T12:38:21;6.80;99.90
7684;DHT22;3884;48.616;12.872;2023-04-08T12:40:48;6.90;99.90
7684;DHT22;3884;48.616;12.872;2023-04-08T12:43:15;6.90;99.90
7684;DHT22;3884;48.616;12.872;2023-04-08T12:45:42;6.90;29.00
7684;DHT22;3884;48.616;12.872;2023-04-08T12:48:09;6.90;6.90
7684;DHT22;3884;48.616;12.872;2023-04-08T12:50:35;7.00;1.00
7684;DHT22;3884;48.616;12.872;2023-04-08T12:53:02;7.00;1.00
7684;DHT22;3884;48.616;12.872;2023-04-08T12:55:31;7.00;1.00
7684;DHT22;3884;48.616;12.872;2023-04-08T12:57:57;6.90;74.30
7684;DHT22;3884;48.616;12.872;2023-04-08T13:00:25;6.90;1.00
7684;DHT22;3884;48.616;12.872;2023-04-08T13:02:51;6.80;90.10
7684;DHT22;3884;48.616;12.872;2023-04-08T13:05:18;6.80;80.60
7684;DHT22;3884;48.616;12.872;2023-04-08T13:07:45;6.70;99.90
7684;DHT22;3884;48.616;12.872;2023-04-08T13:10:12;6.70;99.90
7684;DHT22;3884;48.616;12.872;2023-04-08T13:12:40;6.70;99.90
7684;DHT22;3884;48.616;12.872;2023-04-08T13:15:08;6.70;98.10
7684;DHT22;3884;48.616;12.872;2023-04-08T13:17:35;6.70;99.90
7684;DHT22;3884;48.616;12.872;2023-04-08T13:20:03;6.70;29.20
7684;DHT22;3884;48.616;12.872;2023-04-08T13:22:31;6.70;99.90
7684;DHT22;3884;48.616;12.872;2023-04-08T13:24:59;6.80;99.90
7684;DHT22;3884;48.616;12.872;2023-04-08T13:27:26;6.70;99.90
7684;DHT22;3884;48.616;12.872;2023-04-08T13:29:54;6.60;9.40
7684;DHT22;3884;48.616;12.872;2023-04-08T13:32:21;6.40;99.90
7684;DHT22;3884;48.616;12.872;2023-04-08T13:34:48;6.40;99.90
7684;DHT22;3884;48.616;12.872;2023-04-08T13:37:15;6.50;1.00
7684;DHT22;3884;48.616;12.872;2023-04-08T13:39:42;6.50;1.00
7684;DHT22;3884;48.616;12.872;2023-04-08T13:42:11;6.50;99.90
7684;DHT22;3884;48.616;12.872;2023-04-08T13:44:37;6.50;99.90
7684;DHT22;3884;48.616;12.872;2023-04-08T13:47:06;6.50;44.00
7684;DHT22;3884;48.616;12.872;2023-04-08T13:49:32;6.50;1.00
7684;DHT22;3884;48.616;12.872;2023-04-08T13:51:59;6.50;99.90
7684;DHT22;3884;48.616;12.872;2023-04-08T13:54:26;6.50;99.90
7684;DHT22;3884;48.616;12.872;2023-04-08T13:56:53;6.40;99.90
7684;DHT22;3884;48.616;12.872;2023-04-08T13:59:20;6.30;99.90
7684;DHT22;3884;48.616;12.872;2023-04-08T14:01:47;6.40;1.00
7684;DHT22;3884;48.616;12.872;2023-04-08T14:04:19;6.30;1.00
7684;DHT22;3884;48.616;12.872;2023-04-08T14:06:46;6.20;99.90
7684;DHT22;3884;48.616;12.872;2023-04-08T14:09:15;6.20;99.90
7684;DHT22;3884;48.616;12.872;2023-04-08T14:11:42;6.20;1.00
7684;DHT22;3884;48.616;12.872;2023-04-08T14:14:08;6.20;1.00
7684;DHT22;3884;48.616;12.872;2023-04-08T14:16:35;6.20;1.00
7684;DHT22;3884;48.616;12.872;2023-04-08T14:19:03;6.20;26.30
7684;DHT22;3884;48.616;12.872;2023-04-08T14:21:31;6.20;99.90
7684;DHT22;3884;48.616;12.872;2023-04-08T14:23:57;6.10;99.90
7684;DHT22;3884;48.616;12.872;2023-04-08T14:26:24;6.10;99.90
7684;DHT22;3884;48.616;12.872;2023-04-08T14:28:51;6.00;1.00
7684;DHT22;3884;48.616;12.872;2023-04-08T14:31:18;5.90;1.00
7684;DHT22;3884;48.616;12.872;2023-04-08T14:33:45;5.90;1.00
7684;DHT22;3884;48.616;12.872;2023-04-08T14:36:12;6.00;1.00
7684;DHT22;3884;48.616;12.872;2023-04-08T14:38:40;6.10;1.00
7684;DHT22;3884;48.616;12.872;2023-04-08T14:41:07;6.10;1.00
7684;DHT22;3884;48.616;12.872;2023-04-08T14:43:34;6.10;18.00
7684;DHT22;3884;48.616;12.872;2023-04-08T14:46:01;6.00;34.20
7684;DHT22;3884;48.616;12.872;2023-04-08T14:48:28;6.00;78.30
7684;DHT22;3884;48.616;12.872;2023-04-08T14:50:55;5.90;99.00
7684;DHT22;3884;48.616;12.872;2023-04-08T14:53:22;5.90;99.90
7684;DHT22;3884;48.616;12.872;2023-04-08T14:55:50;5.90;99.90
7684;DHT22;3884;48.616;12.872;2023-04-08T14:58:17;5.90;99.90
7684;DHT22;3884;48.616;12.872;2023-04-08T15:00:45;5.90;99.90
7684;DHT22;3884;48.616;12.872;2023-04-08T15:03:12;5.80;99.90
7684;DHT22;3884;48.616;12.872;2023-04-08T15:05:53;5.90;99.90
7684;DHT22;3884;48.616;12.872;2023-04-08T15:08:21;5.80;99.90
7684;DHT22;3884;48.616;12.872;2023-04-08T15:10:49;6.00;99.90
7684;DHT22;3884;48.616;12.872;2023-04-08T15:13:16;6.10;99.90
7684;DHT22;3884;48.616;12.872;2023-04-08T15:15:43;6.20;99.90
7684;DHT22;3884;48.616;12.872;2023-04-08T15:18:10;6.40;99.90
7684;DHT22;3884;48.616;12.872;2023-04-08T15:20:36;6.50;27.70
7684;DHT22;3884;48.616;12.872;2023-04-08T15:23:03;6.60;1.00
7684;DHT22;3884;48.616;12.872;2023-04-08T15:25:30;6.50;1.00
7684;DHT22;3884;48.616;12.872;2023-04-08T15:27:59;6.40;1.00
7684;DHT22;3884;48.616;12.872;2023-04-08T15:30:27;6.40;1.00
7684;DHT22;3884;48.616;12.872;2023-04-08T15:32:59;6.40;1.00
7684;DHT22;3884;48.616;12.872;2023-04-08T15:35:26;6.60;1.00
7684;DHT22;3884;48.616;12.872;2023-04-08T15:37:53;6.50;1.00
7684;DHT22;3884;48.616;12.872;2023-04-08T15:40:20;6.60;1.00
7684;DHT22;3884;48.616;12.872;2023-04-08T15:42:47;6.60;1.00
7684;DHT22;3884;48.616;12.872;2023-04-08T15:45:15;6.60;1.00
7684;DHT22;3884;48.616;12.872;2023-04-08T15:47:42;6.60;1.00
7684;DHT22;3884;48.616;12.872;2023-04-08T15:50:10;6.60;99.90
7684;DHT22;3884;48.616;12.872;2023-04-08T15:52:37;6.50;1.00
7684;DHT22;3884;48.616;12.872;2023-04-08T15:55:05;6.40;1.00
7684;DHT22;3884;48.616;12.872;2023-04-08T15:57:32;6.50;1.00
7684;DHT22;3884;48.616;12.872;2023-04-08T16:00:00;6.60;99.90
7684;DHT22;3884;48.616;12.872;2023-04-08T16:02:39;6.50;99.90
7684;DHT22;3884;48.616;12.872;2023-04-08T16:05:07;6.60;1.00
7684;DHT22;3884;48.616;12.872;2023-04-08T16:07:34;6.50;1.00
7684;DHT22;3884;48.616;12.872;2023-04-08T16:10:01;6.50;1.00
7684;DHT22;3884;48.616;12.872;2023-04-08T16:12:28;6.50;1.00
7684;DHT22;3884;48.616;12.872;2023-04-08T16:14:55;6.40;1.00
7684;DHT22;3884;48.616;12.872;2023-04-08T16:17:22;6.50;1.00